sensor_id;sensor_type;location;lat;lon;timestamp;P1;durP1;ratioP1;P2;durP2;ratioP2
41261;SDS011;29629;52.532;13.352;2022-10-18T00:02:02;84.43;;;78.10;;
41261;SDS011;29629;52.532;13.352;2022-10-18T00:04:29;74.32;;;69.97;;
41261;SDS011;29629;52.532;13.352;2022-10-18T00:06:57;76.28;;;71.07;;
41261;SDS011;29629;52.532;13.352;2022-10-18T00:09:24;72.65;;;67.85;;
41261;SDS011;29629;52.532;13.352;2022-10-18T00:11:51;74.75;;;70.03;;
41261;SDS011;29629;52.532;13.352;2022-10-18T00:14:18;78.45;;;73.28;;
41261;SDS011;29629;52.532;13.352;2022-10-18T00:16:45;77.93;;;73.03;;
41261;SDS011;29629;52.532;13.352;2022-10-18T00:19:11;75.10;;;70.43;;
41261;SDS011;29629;52.532;13.352;2022-10-18T00:21:38;75.22;;;70.43;;
41261;SDS011;29629;52.532;13.352;2022-10-18T00:24:06;78.85;;;73.25;;
41261;SDS011;29629;52.532;13.352;2022-10-18T00:26:33;75.80;;;71.07;;
41261;SDS011;29629;52.532;13.352;2022-10-18T00:29:00;74.20;;;69.80;;
41261;SDS011;29629;52.532;13.352;2022-10-18T00:31:29;76.55;;;71.78;;
41261;SDS011;29629;52.532;13.352;2022-10-18T00:33:57;84.05;;;77.50;;
41261;SDS011;29629;52.532;13.352;2022-10-18T00:36:26;73.70;;;68.90;;
41261;SDS011;29629;52.532;13.352;2022-10-18T00:38:54;73.80;;;69.40;;
41261;SDS011;29629;52.532;13.352;2022-10-18T00:41:23;76.55;;;71.80;;
41261;SDS011;29629;52.532;13.352;2022-10-18T00:43:52;80.10;;;74.60;;
41261;SDS011;29629;52.532;13.352;2022-10-18T00:46:20;73.65;;;70.13;;
41261;SDS011;29629;52.532;13.352;2022-10-18T00:48:47;78.55;;;73.90;;
41261;SDS011;29629;52.532;13.352;2022-10-18T00:51:15;81.40;;;76.22;;
41261;SDS011;29629;52.532;13.352;2022-10-18T00:53:44;81.63;;;76.68;;
41261;SDS011;29629;52.532;13.352;2022-10-18T00:56:12;82.65;;;77.43;;
41261;SDS011;29629;52.532;13.352;2022-10-18T00:58:40;77.90;;;73.47;;
41261;SDS011;29629;52.532;13.352;2022-10-18T01:01:08;83.70;;;78.97;;
41261;SDS011;29629;52.532;13.352;2022-10-18T01:03:35;80.18;;;75.45;;
41261;SDS011;29629;52.532;13.352;2022-10-18T01:06:02;82.32;;;77.00;;
41261;SDS011;29629;52.532;13.352;2022-10-18T01:11:43;81.38;;;76.68;;
41261;SDS011;29629;52.532;13.352;2022-10-18T01:14:25;81.68;;;76.82;;
41261;SDS011;29629;52.532;13.352;2022-10-18T01:17:02;82.88;;;77.78;;
41261;SDS011;29629;52.532;13.352;2022-10-18T01:19:42;79.38;;;74.43;;
41261;SDS011;29629;52.532;13.352;2022-10-18T01:22:26;82.55;;;77.05;;
41261;SDS011;29629;52.532;13.352;2022-10-18T01:25:00;78.22;;;73.75;;
41261;SDS011;29629;52.532;13.352;2022-10-18T01:33:14;80.38;;;74.70;;
41261;SDS011;29629;52.532;13.352;2022-10-18T01:35:51;78.25;;;73.15;;
41261;SDS011;29629;52.532;13.352;2022-10-18T01:38:23;79.55;;;74.90;;
41261;SDS011;29629;52.532;13.352;2022-10-18T01:40:51;80.38;;;75.72;;
41261;SDS011;29629;52.532;13.352;2022-10-18T01:43:20;78.00;;;73.35;;
41261;SDS011;29629;52.532;13.352;2022-10-18T01:45:49;80.03;;;74.60;;
41261;SDS011;29629;52.532;13.352;2022-10-18T01:48:19;77.15;;;71.95;;
41261;SDS011;29629;52.532;13.352;2022-10-18T01:50:46;79.75;;;75.03;;
41261;SDS011;29629;52.532;13.352;2022-10-18T01:53:20;74.53;;;70.68;;
41261;SDS011;29629;52.532;13.352;2022-10-18T01:55:59;81.10;;;75.75;;
41261;SDS011;29629;52.532;13.352;2022-10-18T01:58:54;73.78;;;70.07;;
41261;SDS011;29629;52.532;13.352;2022-10-18T02:01:32;76.75;;;72.80;;
41261;SDS011;29629;52.532;13.352;2022-10-18T02:04:09;76.30;;;71.20;;
41261;SDS011;29629;52.532;13.352;2022-10-18T02:06:44;74.70;;;71.03;;
41261;SDS011;29629;52.532;13.352;2022-10-18T02:09:15;80.00;;;75.30;;
41261;SDS011;29629;52.532;13.352;2022-10-18T02:11:46;78.03;;;73.38;;
41261;SDS011;29629;52.532;13.352;2022-10-18T02:14:15;76.05;;;71.07;;
41261;SDS011;29629;52.532;13.352;2022-10-18T02:16:47;76.93;;;72.25;;
41261;SDS011;29629;52.532;13.352;2022-10-18T02:19:18;75.78;;;71.10;;
41261;SDS011;29629;52.532;13.352;2022-10-18T02:21:49;78.82;;;74.07;;
41261;SDS011;29629;52.532;13.352;2022-10-18T02:24:18;76.35;;;71.05;;
41261;SDS011;29629;52.532;13.352;2022-10-18T02:26:48;78.60;;;74.15;;
41261;SDS011;29629;52.532;13.352;2022-10-18T02:29:15;74.55;;;69.82;;
41261;SDS011;29629;52.532;13.352;2022-10-18T02:31:42;71.72;;;66.93;;
41261;SDS011;29629;52.532;13.352;2022-10-18T02:34:15;74.15;;;69.65;;
41261;SDS011;29629;52.532;13.352;2022-10-18T02:36:45;74.55;;;69.53;;
41261;SDS011;29629;52.532;13.352;2022-10-18T02:39:15;72.40;;;68.00;;
41261;SDS011;29629;52.532;13.352;2022-10-18T02:41:44;83.60;;;76.28;;
41261;SDS011;29629;52.532;13.352;2022-10-18T02:44:11;74.43;;;69.55;;
41261;SDS011;29629;52.532;13.352;2022-10-18T02:46:38;74.30;;;69.78;;
41261;SDS011;29629;52.532;13.352;2022-10-18T02:49:05;71.38;;;67.15;;
41261;SDS011;29629;52.532;13.352;2022-10-18T02:51:33;69.78;;;64.93;;
41261;SDS011;29629;52.532;13.352;2022-10-18T02:54:00;74.82;;;69.38;;
41261;SDS011;29629;52.532;13.352;2022-10-18T02:56:27;70.65;;;66.15;;
41261;SDS011;29629;52.532;13.352;2022-10-18T02:58:54;74.93;;;69.63;;
41261;SDS011;29629;52.532;13.352;2022-10-18T03:01:21;72.38;;;68.07;;
41261;SDS011;29629;52.532;13.352;2022-10-18T03:03:48;74.03;;;68.35;;
41261;SDS011;29629;52.532;13.352;2022-10-18T03:06:15;73.82;;;69.07;;
41261;SDS011;29629;52.532;13.352;2022-10-18T03:08:43;71.55;;;66.80;;
41261;SDS011;29629;52.532;13.352;2022-10-18T03:11:10;73.40;;;68.57;;
41261;SDS011;29629;52.532;13.352;2022-10-18T03:13:36;73.53;;;69.65;;
41261;SDS011;29629;52.532;13.352;2022-10-18T03:16:03;71.85;;;67.75;;
41261;SDS011;29629;52.532;13.352;2022-10-18T03:18:30;72.97;;;68.47;;
41261;SDS011;29629;52.532;13.352;2022-10-18T03:20:57;70.97;;;66.60;;
41261;SDS011;29629;52.532;13.352;2022-10-18T03:23:24;74.40;;;69.75;;
41261;SDS011;29629;52.532;13.352;2022-10-18T03:25:52;68.55;;;64.28;;
41261;SDS011;29629;52.532;13.352;2022-10-18T03:28:19;72.07;;;66.85;;
41261;SDS011;29629;52.532;13.352;2022-10-18T03:30:46;71.93;;;67.53;;
41261;SDS011;29629;52.532;13.352;2022-10-18T03:33:13;70.75;;;67.18;;
41261;SDS011;29629;52.532;13.352;2022-10-18T03:35:39;72.28;;;67.82;;
41261;SDS011;29629;52.532;13.352;2022-10-18T03:38:06;68.20;;;63.95;;
41261;SDS011;29629;52.532;13.352;2022-10-18T03:40:33;71.07;;;66.80;;
41261;SDS011;29629;52.532;13.352;2022-10-18T03:43:01;75.72;;;71.03;;
41261;SDS011;29629;52.532;13.352;2022-10-18T03:45:28;72.95;;;68.57;;
41261;SDS011;29629;52.532;13.352;2022-10-18T03:47:55;70.78;;;66.30;;
41261;SDS011;29629;52.532;13.352;2022-10-18T03:50:22;69.63;;;65.20;;
41261;SDS011;29629;52.532;13.352;2022-10-18T03:52:48;71.63;;;66.80;;
41261;SDS011;29629;52.532;13.352;2022-10-18T03:55:15;70.80;;;66.68;;
41261;SDS011;29629;52.532;13.352;2022-10-18T03:57:42;75.28;;;69.82;;
41261;SDS011;29629;52.532;13.352;2022-10-18T04:00:10;74.15;;;69.93;;
41261;SDS011;29629;52.532;13.352;2022-10-18T04:02:38;66.25;;;63.00;;
41261;SDS011;29629;52.532;13.352;2022-10-18T04:05:05;65.10;;;61.33;;
41261;SDS011;29629;52.532;13.352;2022-10-18T04:07:32;68.75;;;64.50;;
41261;SDS011;29629;52.532;13.352;2022-10-18T04:10:00;63.08;;;59.13;;
41261;SDS011;29629;52.532;13.352;2022-10-18T04:12:27;64.90;;;61.22;;
41261;SDS011;29629;52.532;13.352;2022-10-18T04:14:53;68.97;;;65.40;;
41261;SDS011;29629;52.532;13.352;2022-10-18T04:17:22;66.90;;;62.95;;
41261;SDS011;29629;52.532;13.352;2022-10-18T04:19:48;67.45;;;63.15;;
41261;SDS011;29629;52.532;13.352;2022-10-18T04:22:15;73.70;;;68.15;;
41261;SDS011;29629;52.532;13.352;2022-10-18T04:24:42;63.58;;;59.33;;
41261;SDS011;29629;52.532;13.352;2022-10-18T04:27:09;64.80;;;60.53;;
41261;SDS011;29629;52.532;13.352;2022-10-18T04:29:35;60.75;;;57.47;;
41261;SDS011;29629;52.532;13.352;2022-10-18T04:32:02;63.78;;;59.67;;
41261;SDS011;29629;52.532;13.352;2022-10-18T04:34:30;63.15;;;58.75;;
41261;SDS011;29629;52.532;13.352;2022-10-18T04:36:57;63.33;;;59.50;;
41261;SDS011;29629;52.532;13.352;2022-10-18T04:39:24;58.35;;;54.72;;
41261;SDS011;29629;52.532;13.352;2022-10-18T04:41:51;60.13;;;56.13;;
41261;SDS011;29629;52.532;13.352;2022-10-18T04:44:18;63.13;;;57.92;;
41261;SDS011;29629;52.532;13.352;2022-10-18T04:46:44;56.00;;;52.25;;
41261;SDS011;29629;52.532;13.352;2022-10-18T04:49:11;57.30;;;53.70;;
41261;SDS011;29629;52.532;13.352;2022-10-18T04:51:39;61.38;;;57.28;;
41261;SDS011;29629;52.532;13.352;2022-10-18T04:54:06;60.65;;;57.15;;
41261;SDS011;29629;52.532;13.352;2022-10-18T04:56:33;62.25;;;57.63;;
41261;SDS011;29629;52.532;13.352;2022-10-18T04:58:59;64.38;;;60.03;;
41261;SDS011;29629;52.532;13.352;2022-10-18T05:01:26;67.65;;;62.42;;
41261;SDS011;29629;52.532;13.352;2022-10-18T05:03:53;68.78;;;63.10;;
41261;SDS011;29629;52.532;13.352;2022-10-18T05:06:20;66.05;;;60.80;;
41261;SDS011;29629;52.532;13.352;2022-10-18T05:08:49;61.72;;;57.53;;
41261;SDS011;29629;52.532;13.352;2022-10-18T05:11:16;65.07;;;60.38;;
41261;SDS011;29629;52.532;13.352;2022-10-18T05:13:43;62.92;;;59.05;;
41261;SDS011;29629;52.532;13.352;2022-10-18T05:16:09;63.15;;;58.90;;
41261;SDS011;29629;52.532;13.352;2022-10-18T05:18:36;61.67;;;57.97;;
41261;SDS011;29629;52.532;13.352;2022-10-18T05:21:03;58.88;;;55.00;;
41261;SDS011;29629;52.532;13.352;2022-10-18T05:23:30;63.85;;;59.45;;
41261;SDS011;29629;52.532;13.352;2022-10-18T05:26:01;59.05;;;55.30;;
41261;SDS011;29629;52.532;13.352;2022-10-18T05:28:28;63.78;;;59.65;;
41261;SDS011;29629;52.532;13.352;2022-10-18T05:30:57;65.65;;;61.35;;
41261;SDS011;29629;52.532;13.352;2022-10-18T05:33:26;61.92;;;57.70;;
41261;SDS011;29629;52.532;13.352;2022-10-18T05:35:53;64.35;;;59.58;;
41261;SDS011;29629;52.532;13.352;2022-10-18T05:38:20;61.92;;;57.55;;
41261;SDS011;29629;52.532;13.352;2022-10-18T05:40:47;63.25;;;58.53;;
41261;SDS011;29629;52.532;13.352;2022-10-18T05:43:15;62.42;;;57.85;;
41261;SDS011;29629;52.532;13.352;2022-10-18T05:45:45;64.05;;;58.92;;
41261;SDS011;29629;52.532;13.352;2022-10-18T05:48:13;60.25;;;55.85;;
41261;SDS011;29629;52.532;13.352;2022-10-18T05:50:40;59.80;;;55.80;;
41261;SDS011;29629;52.532;13.352;2022-10-18T05:53:07;57.00;;;53.08;;
41261;SDS011;29629;52.532;13.352;2022-10-18T05:55:34;58.03;;;53.90;;
41261;SDS011;29629;52.532;13.352;2022-10-18T05:58:00;58.30;;;54.75;;
41261;SDS011;29629;52.532;13.352;2022-10-18T06:00:29;59.15;;;54.35;;
41261;SDS011;29629;52.532;13.352;2022-10-18T06:02:56;57.03;;;53.28;;
41261;SDS011;29629;52.532;13.352;2022-10-18T06:05:23;55.35;;;51.72;;
41261;SDS011;29629;52.532;13.352;2022-10-18T06:07:50;60.63;;;56.67;;
41261;SDS011;29629;52.532;13.352;2022-10-18T06:10:16;59.65;;;55.78;;
41261;SDS011;29629;52.532;13.352;2022-10-18T06:12:43;57.47;;;53.67;;
41261;SDS011;29629;52.532;13.352;2022-10-18T06:15:10;57.83;;;53.78;;
41261;SDS011;29629;52.532;13.352;2022-10-18T06:17:38;57.10;;;53.17;;
41261;SDS011;29629;52.532;13.352;2022-10-18T06:20:05;56.85;;;52.67;;
41261;SDS011;29629;52.532;13.352;2022-10-18T06:22:33;59.53;;;55.28;;
41261;SDS011;29629;52.532;13.352;2022-10-18T06:24:59;58.20;;;54.03;;
41261;SDS011;29629;52.532;13.352;2022-10-18T06:27:26;61.08;;;57.38;;
41261;SDS011;29629;52.532;13.352;2022-10-18T06:29:55;59.85;;;55.47;;
41261;SDS011;29629;52.532;13.352;2022-10-18T06:32:22;63.65;;;59.03;;
41261;SDS011;29629;52.532;13.352;2022-10-18T06:34:50;58.83;;;55.08;;
41261;SDS011;29629;52.532;13.352;2022-10-18T06:37:16;59.20;;;55.65;;
41261;SDS011;29629;52.532;13.352;2022-10-18T06:39:43;58.60;;;54.92;;
41261;SDS011;29629;52.532;13.352;2022-10-18T06:42:10;60.63;;;56.13;;
41261;SDS011;29629;52.532;13.352;2022-10-18T06:44:37;58.80;;;54.78;;
41261;SDS011;29629;52.532;13.352;2022-10-18T06:47:03;59.45;;;55.67;;
41261;SDS011;29629;52.532;13.352;2022-10-18T06:49:32;58.08;;;54.63;;
41261;SDS011;29629;52.532;13.352;2022-10-18T06:52:00;60.53;;;55.95;;
41261;SDS011;29629;52.532;13.352;2022-10-18T06:54:28;60.30;;;55.92;;
41261;SDS011;29629;52.532;13.352;2022-10-18T06:56:55;58.95;;;54.90;;
41261;SDS011;29629;52.532;13.352;2022-10-18T06:59:22;55.53;;;51.72;;
41261;SDS011;29629;52.532;13.352;2022-10-18T07:01:49;53.88;;;49.95;;
41261;SDS011;29629;52.532;13.352;2022-10-18T07:04:16;56.38;;;52.17;;
41261;SDS011;29629;52.532;13.352;2022-10-18T07:06:43;53.95;;;50.20;;
41261;SDS011;29629;52.532;13.352;2022-10-18T07:09:11;54.75;;;50.88;;
41261;SDS011;29629;52.532;13.352;2022-10-18T07:11:38;51.53;;;47.72;;
41261;SDS011;29629;52.532;13.352;2022-10-18T07:14:05;56.17;;;51.80;;
41261;SDS011;29629;52.532;13.352;2022-10-18T07:16:32;52.33;;;47.45;;
41261;SDS011;29629;52.532;13.352;2022-10-18T07:19:01;54.00;;;49.85;;
41261;SDS011;29629;52.532;13.352;2022-10-18T07:21:28;55.35;;;51.72;;
41261;SDS011;29629;52.532;13.352;2022-10-18T07:23:55;60.13;;;55.88;;
41261;SDS011;29629;52.532;13.352;2022-10-18T07:26:24;48.60;;;44.78;;
41261;SDS011;29629;52.532;13.352;2022-10-18T07:28:54;48.40;;;44.53;;
41261;SDS011;29629;52.532;13.352;2022-10-18T07:31:23;44.45;;;40.25;;
41261;SDS011;29629;52.532;13.352;2022-10-18T07:33:50;52.80;;;47.83;;
41261;SDS011;29629;52.532;13.352;2022-10-18T07:36:18;49.28;;;45.80;;
41261;SDS011;29629;52.532;13.352;2022-10-18T07:38:46;56.90;;;52.80;;
41261;SDS011;29629;52.532;13.352;2022-10-18T07:41:13;64.03;;;58.70;;
41261;SDS011;29629;52.532;13.352;2022-10-18T07:43:42;61.92;;;57.92;;
41261;SDS011;29629;52.532;13.352;2022-10-18T07:46:10;61.67;;;57.83;;
41261;SDS011;29629;52.532;13.352;2022-10-18T07:48:38;66.90;;;62.53;;
41261;SDS011;29629;52.532;13.352;2022-10-18T07:51:05;61.88;;;57.58;;
41261;SDS011;29629;52.532;13.352;2022-10-18T07:53:32;59.15;;;56.08;;
41261;SDS011;29629;52.532;13.352;2022-10-18T07:56:00;65.75;;;61.50;;
41261;SDS011;29629;52.532;13.352;2022-10-18T07:58:29;61.95;;;57.55;;
41261;SDS011;29629;52.532;13.352;2022-10-18T08:01:00;62.35;;;57.63;;
41261;SDS011;29629;52.532;13.352;2022-10-18T08:03:28;63.42;;;58.80;;
41261;SDS011;29629;52.532;13.352;2022-10-18T08:05:55;63.45;;;59.10;;
41261;SDS011;29629;52.532;13.352;2022-10-18T08:08:22;64.20;;;59.75;;
41261;SDS011;29629;52.532;13.352;2022-10-18T08:10:49;62.17;;;58.30;;
41261;SDS011;29629;52.532;13.352;2022-10-18T08:13:16;63.92;;;59.55;;
41261;SDS011;29629;52.532;13.352;2022-10-18T08:15:44;64.63;;;61.05;;
41261;SDS011;29629;52.532;13.352;2022-10-18T08:18:13;65.07;;;60.47;;
41261;SDS011;29629;52.532;13.352;2022-10-18T08:20:41;65.72;;;61.65;;
41261;SDS011;29629;52.532;13.352;2022-10-18T08:23:08;61.05;;;57.55;;
41261;SDS011;29629;52.532;13.352;2022-10-18T08:25:35;62.92;;;58.95;;
41261;SDS011;29629;52.532;13.352;2022-10-18T08:28:02;59.10;;;55.47;;
41261;SDS011;29629;52.532;13.352;2022-10-18T08:30:29;61.92;;;57.80;;
41261;SDS011;29629;52.532;13.352;2022-10-18T08:32:55;63.22;;;59.13;;
41261;SDS011;29629;52.532;13.352;2022-10-18T08:35:24;63.83;;;58.80;;
41261;SDS011;29629;52.532;13.352;2022-10-18T08:37:50;59.88;;;56.78;;
41261;SDS011;29629;52.532;13.352;2022-10-18T08:40:17;55.60;;;50.95;;
41261;SDS011;29629;52.532;13.352;2022-10-18T08:42:50;40.30;;;37.05;;
41261;SDS011;29629;52.532;13.352;2022-10-18T08:45:28;43.38;;;39.95;;
41261;SDS011;29629;52.532;13.352;2022-10-18T08:47:58;48.20;;;44.17;;
41261;SDS011;29629;52.532;13.352;2022-10-18T08:50:28;47.47;;;44.30;;
41261;SDS011;29629;52.532;13.352;2022-10-18T08:53:00;46.30;;;42.85;;
41261;SDS011;29629;52.532;13.352;2022-10-18T08:55:37;39.03;;;35.95;;
41261;SDS011;29629;52.532;13.352;2022-10-18T08:58:12;32.30;;;29.60;;
41261;SDS011;29629;52.532;13.352;2022-10-18T09:00:44;41.08;;;37.65;;
41261;SDS011;29629;52.532;13.352;2022-10-18T09:03:18;41.00;;;38.45;;
41261;SDS011;29629;52.532;13.352;2022-10-18T09:05:57;43.17;;;40.40;;
41261;SDS011;29629;52.532;13.352;2022-10-18T09:08:36;43.85;;;39.72;;
41261;SDS011;29629;52.532;13.352;2022-10-18T09:11:17;46.40;;;41.95;;
41261;SDS011;29629;52.532;13.352;2022-10-18T09:14:02;48.97;;;44.33;;
41261;SDS011;29629;52.532;13.352;2022-10-18T09:16:44;44.05;;;40.95;;
41261;SDS011;29629;52.532;13.352;2022-10-18T09:19:19;40.47;;;37.70;;
41261;SDS011;29629;52.532;13.352;2022-10-18T09:21:55;42.33;;;39.30;;
41261;SDS011;29629;52.532;13.352;2022-10-18T09:24:29;44.90;;;41.53;;
41261;SDS011;29629;52.532;13.352;2022-10-18T09:27:04;41.40;;;38.92;;
41261;SDS011;29629;52.532;13.352;2022-10-18T09:29:48;44.03;;;40.63;;
41261;SDS011;29629;52.532;13.352;2022-10-18T09:32:26;38.17;;;35.23;;
41261;SDS011;29629;52.532;13.352;2022-10-18T09:35:02;31.42;;;28.73;;
41261;SDS011;29629;52.532;13.352;2022-10-18T09:37:38;30.30;;;27.70;;
41261;SDS011;29629;52.532;13.352;2022-10-18T09:40:11;33.42;;;30.70;;
41261;SDS011;29629;52.532;13.352;2022-10-18T09:42:41;37.13;;;34.10;;
41261;SDS011;29629;52.532;13.352;2022-10-18T09:45:19;39.72;;;36.42;;
41261;SDS011;29629;52.532;13.352;2022-10-18T09:47:53;40.00;;;37.10;;
41261;SDS011;29629;52.532;13.352;2022-10-18T09:50:29;42.00;;;38.67;;
41261;SDS011;29629;52.532;13.352;2022-10-18T09:53:05;42.25;;;38.80;;
41261;SDS011;29629;52.532;13.352;2022-10-18T09:55:41;46.28;;;42.55;;
41261;SDS011;29629;52.532;13.352;2022-10-18T09:58:17;48.45;;;44.55;;
41261;SDS011;29629;52.532;13.352;2022-10-18T10:00:48;47.58;;;44.53;;
41261;SDS011;29629;52.532;13.352;2022-10-18T10:03:16;43.67;;;41.05;;
41261;SDS011;29629;52.532;13.352;2022-10-18T10:05:46;51.28;;;47.60;;
41261;SDS011;29629;52.532;13.352;2022-10-18T10:08:32;50.45;;;46.15;;
41261;SDS011;29629;52.532;13.352;2022-10-18T10:10:59;45.33;;;41.40;;
41261;SDS011;29629;52.532;13.352;2022-10-18T10:13:26;45.22;;;41.67;;
41261;SDS011;29629;52.532;13.352;2022-10-18T10:15:53;54.17;;;47.70;;
41261;SDS011;29629;52.532;13.352;2022-10-18T10:18:22;53.22;;;44.25;;
41261;SDS011;29629;52.532;13.352;2022-10-18T10:20:51;39.10;;;36.10;;
41261;SDS011;29629;52.532;13.352;2022-10-18T10:23:20;37.85;;;35.65;;
41261;SDS011;29629;52.532;13.352;2022-10-18T10:25:52;41.08;;;38.20;;
41261;SDS011;29629;52.532;13.352;2022-10-18T10:28:21;41.67;;;38.33;;
41261;SDS011;29629;52.532;13.352;2022-10-18T10:30:51;44.95;;;41.83;;
41261;SDS011;29629;52.532;13.352;2022-10-18T10:33:29;45.80;;;42.67;;
41261;SDS011;29629;52.532;13.352;2022-10-18T10:35:58;44.83;;;41.88;;
41261;SDS011;29629;52.532;13.352;2022-10-18T10:38:27;45.33;;;41.88;;
41261;SDS011;29629;52.532;13.352;2022-10-18T10:40:57;42.83;;;40.10;;
41261;SDS011;29629;52.532;13.352;2022-10-18T10:43:25;44.72;;;41.70;;
41261;SDS011;29629;52.532;13.352;2022-10-18T10:45:58;43.75;;;40.55;;
41261;SDS011;29629;52.532;13.352;2022-10-18T10:48:27;40.80;;;37.78;;
41261;SDS011;29629;52.532;13.352;2022-10-18T10:50:58;45.53;;;42.08;;
41261;SDS011;29629;52.532;13.352;2022-10-18T10:53:33;48.20;;;44.55;;
41261;SDS011;29629;52.532;13.352;2022-10-18T10:56:05;46.33;;;42.22;;
41261;SDS011;29629;52.532;13.352;2022-10-18T10:58:38;46.00;;;42.67;;
41261;SDS011;29629;52.532;13.352;2022-10-18T11:01:25;46.72;;;43.53;;
41261;SDS011;29629;52.532;13.352;2022-10-18T11:03:55;50.22;;;45.85;;
41261;SDS011;29629;52.532;13.352;2022-10-18T11:06:31;49.83;;;45.83;;
41261;SDS011;29629;52.532;13.352;2022-10-18T11:09:23;49.67;;;45.92;;
41261;SDS011;29629;52.532;13.352;2022-10-18T11:12:20;47.85;;;44.83;;
41261;SDS011;29629;52.532;13.352;2022-10-18T11:14:53;50.50;;;46.83;;
41261;SDS011;29629;52.532;13.352;2022-10-18T11:17:28;47.63;;;44.28;;
41261;SDS011;29629;52.532;13.352;2022-10-18T11:20:02;47.05;;;43.58;;
41261;SDS011;29629;52.532;13.352;2022-10-18T11:22:39;44.28;;;41.22;;
41261;SDS011;29629;52.532;13.352;2022-10-18T11:25:09;48.38;;;45.35;;
41261;SDS011;29629;52.532;13.352;2022-10-18T11:27:41;47.90;;;44.83;;
41261;SDS011;29629;52.532;13.352;2022-10-18T11:30:23;50.20;;;46.50;;
41261;SDS011;29629;52.532;13.352;2022-10-18T11:33:04;46.92;;;44.33;;
41261;SDS011;29629;52.532;13.352;2022-10-18T11:35:43;44.47;;;41.25;;
41261;SDS011;29629;52.532;13.352;2022-10-18T11:38:16;40.15;;;37.40;;
41261;SDS011;29629;52.532;13.352;2022-10-18T11:40:54;41.60;;;38.65;;
41261;SDS011;29629;52.532;13.352;2022-10-18T11:43:38;44.20;;;41.67;;
41261;SDS011;29629;52.532;13.352;2022-10-18T11:46:12;43.53;;;41.08;;
41261;SDS011;29629;52.532;13.352;2022-10-18T11:48:50;38.92;;;36.15;;
41261;SDS011;29629;52.532;13.352;2022-10-18T11:51:38;25.83;;;23.80;;
41261;SDS011;29629;52.532;13.352;2022-10-18T11:54:19;32.75;;;30.73;;
41261;SDS011;29629;52.532;13.352;2022-10-18T11:56:59;38.83;;;36.08;;
41261;SDS011;29629;52.532;13.352;2022-10-18T11:59:36;43.80;;;40.67;;
41261;SDS011;29629;52.532;13.352;2022-10-18T12:02:15;47.70;;;44.38;;
41261;SDS011;29629;52.532;13.352;2022-10-18T12:05:00;47.03;;;43.58;;
41261;SDS011;29629;52.532;13.352;2022-10-18T12:07:28;48.58;;;45.30;;
41261;SDS011;29629;52.532;13.352;2022-10-18T12:09:59;48.55;;;44.97;;
41261;SDS011;29629;52.532;13.352;2022-10-18T12:12:29;48.28;;;45.03;;
41261;SDS011;29629;52.532;13.352;2022-10-18T12:15:00;46.45;;;43.35;;
41261;SDS011;29629;52.532;13.352;2022-10-18T12:17:31;45.53;;;42.08;;
41261;SDS011;29629;52.532;13.352;2022-10-18T12:20:02;45.08;;;41.75;;
41261;SDS011;29629;52.532;13.352;2022-10-18T12:22:36;49.65;;;45.30;;
41261;SDS011;29629;52.532;13.352;2022-10-18T12:25:08;43.88;;;40.65;;
41261;SDS011;29629;52.532;13.352;2022-10-18T12:27:38;46.03;;;42.92;;
41261;SDS011;29629;52.532;13.352;2022-10-18T12:30:13;47.58;;;44.45;;
41261;SDS011;29629;52.532;13.352;2022-10-18T12:32:49;46.83;;;43.88;;
41261;SDS011;29629;52.532;13.352;2022-10-18T12:35:27;50.35;;;46.92;;
41261;SDS011;29629;52.532;13.352;2022-10-18T12:38:13;49.05;;;45.58;;
41261;SDS011;29629;52.532;13.352;2022-10-18T12:40:44;53.70;;;50.15;;
41261;SDS011;29629;52.532;13.352;2022-10-18T12:43:15;52.47;;;49.20;;
41261;SDS011;29629;52.532;13.352;2022-10-18T12:45:49;53.03;;;49.58;;
41261;SDS011;29629;52.532;13.352;2022-10-18T12:48:26;55.20;;;51.90;;
41261;SDS011;29629;52.532;13.352;2022-10-18T12:50:56;51.85;;;48.42;;
41261;SDS011;29629;52.532;13.352;2022-10-18T12:53:25;53.22;;;49.75;;
41261;SDS011;29629;52.532;13.352;2022-10-18T12:55:53;52.10;;;48.92;;
41261;SDS011;29629;52.532;13.352;2022-10-18T12:58:28;42.70;;;39.58;;
41261;SDS011;29629;52.532;13.352;2022-10-18T13:00:58;43.22;;;40.03;;
41261;SDS011;29629;52.532;13.352;2022-10-18T13:03:27;47.85;;;44.83;;
41261;SDS011;29629;52.532;13.352;2022-10-18T13:06:03;53.10;;;49.70;;
41261;SDS011;29629;52.532;13.352;2022-10-18T13:08:38;53.47;;;49.65;;
41261;SDS011;29629;52.532;13.352;2022-10-18T13:11:29;50.15;;;46.95;;
41261;SDS011;29629;52.532;13.352;2022-10-18T13:16:55;51.10;;;47.63;;
41261;SDS011;29629;52.532;13.352;2022-10-18T13:19:26;51.45;;;47.90;;
41261;SDS011;29629;52.532;13.352;2022-10-18T13:22:06;54.63;;;51.40;;
41261;SDS011;29629;52.532;13.352;2022-10-18T13:24:43;51.90;;;48.28;;
41261;SDS011;29629;52.532;13.352;2022-10-18T13:27:22;53.28;;;49.70;;
41261;SDS011;29629;52.532;13.352;2022-10-18T13:29:59;54.10;;;51.63;;
41261;SDS011;29629;52.532;13.352;2022-10-18T13:32:48;57.88;;;54.45;;
41261;SDS011;29629;52.532;13.352;2022-10-18T13:38:15;58.97;;;55.65;;
41261;SDS011;29629;52.532;13.352;2022-10-18T13:40:59;59.40;;;56.28;;
41261;SDS011;29629;52.532;13.352;2022-10-18T13:50:04;72.45;;;67.72;;
41261;SDS011;29629;52.532;13.352;2022-10-18T13:55:53;73.65;;;69.63;;
41261;SDS011;29629;52.532;13.352;2022-10-18T13:58:35;77.43;;;73.32;;
41261;SDS011;29629;52.532;13.352;2022-10-18T14:01:16;76.82;;;72.82;;
41261;SDS011;29629;52.532;13.352;2022-10-18T14:04:03;75.25;;;69.72;;
41261;SDS011;29629;52.532;13.352;2022-10-18T14:06:49;63.33;;;59.60;;
41261;SDS011;29629;52.532;13.352;2022-10-18T14:09:18;58.42;;;55.30;;
41261;SDS011;29629;52.532;13.352;2022-10-18T14:11:48;57.88;;;53.97;;
41261;SDS011;29629;52.532;13.352;2022-10-18T14:14:19;57.33;;;53.80;;
41261;SDS011;29629;52.532;13.352;2022-10-18T14:16:55;57.38;;;53.88;;
41261;SDS011;29629;52.532;13.352;2022-10-18T14:19:32;54.13;;;50.72;;
41261;SDS011;29629;52.532;13.352;2022-10-18T14:22:06;55.17;;;52.00;;
41261;SDS011;29629;52.532;13.352;2022-10-18T14:24:39;61.20;;;56.83;;
41261;SDS011;29629;52.532;13.352;2022-10-18T14:27:10;52.90;;;50.28;;
41261;SDS011;29629;52.532;13.352;2022-10-18T14:29:38;59.50;;;55.83;;
41261;SDS011;29629;52.532;13.352;2022-10-18T14:32:07;53.13;;;49.70;;
41261;SDS011;29629;52.532;13.352;2022-10-18T14:34:35;56.00;;;52.15;;
41261;SDS011;29629;52.532;13.352;2022-10-18T14:37:02;53.55;;;49.95;;
41261;SDS011;29629;52.532;13.352;2022-10-18T14:39:31;48.40;;;45.03;;
41261;SDS011;29629;52.532;13.352;2022-10-18T14:41:58;50.50;;;46.75;;
41261;SDS011;29629;52.532;13.352;2022-10-18T14:44:25;49.47;;;46.00;;
41261;SDS011;29629;52.532;13.352;2022-10-18T14:46:57;49.47;;;46.28;;
41261;SDS011;29629;52.532;13.352;2022-10-18T14:49:26;46.38;;;43.78;;
41261;SDS011;29629;52.532;13.352;2022-10-18T14:51:54;45.92;;;42.53;;
41261;SDS011;29629;52.532;13.352;2022-10-18T14:54:26;45.88;;;42.20;;